sensor_id;sensor_type;location;lat;lon;timestamp;P1;durP1;ratioP1;P2;durP2;ratioP2
5569;SDS011;2808;51.240;6.794;2023-03-01T00:01:18;10.07;;;5.27;;
5569;SDS011;2808;51.240;6.794;2023-03-01T00:03:48;11.50;;;4.90;;
5569;SDS011;2808;51.240;6.794;2023-03-01T00:06:18;14.60;;;6.40;;
5569;SDS011;2808;51.240;6.794;2023-03-01T00:08:46;13.40;;;6.00;;
5569;SDS011;2808;51.240;6.794;2023-03-01T00:11:16;12.37;;;5.67;;
5569;SDS011;2808;51.240;6.794;2023-03-01T00:13:45;10.60;;;5.30;;
5569;SDS011;2808;51.240;6.794;2023-03-01T00:16:15;12.50;;;5.77;;
5569;SDS011;2808;51.240;6.794;2023-03-01T00:18:44;26.33;;;6.20;;
5569;SDS011;2808;51.240;6.794;2023-03-01T00:21:13;18.87;;;6.30;;
5569;SDS011;2808;51.240;6.794;2023-03-01T00:23:41;23.10;;;6.17;;
5569;SDS011;2808;51.240;6.794;2023-03-01T00:26:09;15.27;;;6.33;;
5569;SDS011;2808;51.240;6.794;2023-03-01T00:28:39;17.10;;;7.17;;
5569;SDS011;2808;51.240;6.794;2023-03-01T00:31:07;18.20;;;7.77;;
5569;SDS011;2808;51.240;6.794;2023-03-01T00:33:38;18.00;;;6.90;;
5569;SDS011;2808;51.240;6.794;2023-03-01T00:36:06;11.80;;;5.90;;
5569;SDS011;2808;51.240;6.794;2023-03-01T00:38:36;12.50;;;6.20;;
5569;SDS011;2808;51.240;6.794;2023-03-01T00:41:05;17.33;;;5.90;;
5569;SDS011;2808;51.240;6.794;2023-03-01T00:43:33;16.23;;;5.67;;
5569;SDS011;2808;51.240;6.794;2023-03-01T00:46:03;13.50;;;6.20;;
5569;SDS011;2808;51.240;6.794;2023-03-01T00:48:33;12.73;;;5.00;;
5569;SDS011;2808;51.240;6.794;2023-03-01T00:51:04;12.90;;;6.63;;
5569;SDS011;2808;51.240;6.794;2023-03-01T00:53:33;12.83;;;6.00;;
5569;SDS011;2808;51.240;6.794;2023-03-01T00:56:02;18.27;;;6.50;;
5569;SDS011;2808;51.240;6.794;2023-03-01T00:58:30;16.03;;;6.30;;
5569;SDS011;2808;51.240;6.794;2023-03-01T01:00:58;11.57;;;6.20;;
5569;SDS011;2808;51.240;6.794;2023-03-01T01:03:26;13.63;;;6.43;;
5569;SDS011;2808;51.240;6.794;2023-03-01T01:05:54;13.70;;;6.53;;
5569;SDS011;2808;51.240;6.794;2023-03-01T01:08:21;14.47;;;6.60;;
5569;SDS011;2808;51.240;6.794;2023-03-01T01:10:48;11.87;;;6.63;;
5569;SDS011;2808;51.240;6.794;2023-03-01T01:13:17;13.33;;;6.57;;
5569;SDS011;2808;51.240;6.794;2023-03-01T01:15:45;17.70;;;6.67;;
5569;SDS011;2808;51.240;6.794;2023-03-01T01:18:13;14.63;;;6.07;;
5569;SDS011;2808;51.240;6.794;2023-03-01T01:20:43;14.07;;;6.77;;
5569;SDS011;2808;51.240;6.794;2023-03-01T01:23:11;10.70;;;5.83;;
5569;SDS011;2808;51.240;6.794;2023-03-01T01:25:38;16.67;;;6.10;;
5569;SDS011;2808;51.240;6.794;2023-03-01T01:28:06;11.23;;;5.87;;
5569;SDS011;2808;51.240;6.794;2023-03-01T01:30:35;13.10;;;6.53;;
5569;SDS011;2808;51.240;6.794;2023-03-01T01:33:02;12.10;;;6.03;;
5569;SDS011;2808;51.240;6.794;2023-03-01T01:35:55;14.93;;;6.70;;
5569;SDS011;2808;51.240;6.794;2023-03-01T01:38:31;12.27;;;6.00;;
5569;SDS011;2808;51.240;6.794;2023-03-01T01:40:59;12.03;;;6.53;;
5569;SDS011;2808;51.240;6.794;2023-03-01T01:43:28;11.03;;;6.30;;
5569;SDS011;2808;51.240;6.794;2023-03-01T01:45:58;15.77;;;6.47;;
5569;SDS011;2808;51.240;6.794;2023-03-01T01:48:28;14.63;;;6.40;;
5569;SDS011;2808;51.240;6.794;2023-03-01T01:51:05;9.20;;;5.20;;
5569;SDS011;2808;51.240;6.794;2023-03-01T01:53:36;14.80;;;7.10;;
5569;SDS011;2808;51.240;6.794;2023-03-01T01:56:06;12.10;;;6.03;;
5569;SDS011;2808;51.240;6.794;2023-03-01T01:58:38;17.53;;;7.80;;
5569;SDS011;2808;51.240;6.794;2023-03-01T02:01:08;22.03;;;6.47;;
5569;SDS011;2808;51.240;6.794;2023-03-01T02:03:37;14.07;;;6.13;;
5569;SDS011;2808;51.240;6.794;2023-03-01T02:06:11;14.30;;;6.37;;
5569;SDS011;2808;51.240;6.794;2023-03-01T02:08:43;11.33;;;5.70;;
5569;SDS011;2808;51.240;6.794;2023-03-01T02:11:13;11.00;;;5.83;;
5569;SDS011;2808;51.240;6.794;2023-03-01T02:13:44;12.47;;;6.70;;
5569;SDS011;2808;51.240;6.794;2023-03-01T02:16:15;14.57;;;6.77;;
5569;SDS011;2808;51.240;6.794;2023-03-01T02:18:43;14.40;;;6.90;;
5569;SDS011;2808;51.240;6.794;2023-03-01T02:21:14;11.93;;;5.97;;
5569;SDS011;2808;51.240;6.794;2023-03-01T02:23:51;12.73;;;6.23;;
5569;SDS011;2808;51.240;6.794;2023-03-01T02:26:23;12.17;;;6.10;;
5569;SDS011;2808;51.240;6.794;2023-03-01T02:28:59;14.17;;;7.20;;
5569;SDS011;2808;51.240;6.794;2023-03-01T02:31:27;15.00;;;7.10;;
5569;SDS011;2808;51.240;6.794;2023-03-01T02:34:11;14.87;;;7.00;;
5569;SDS011;2808;51.240;6.794;2023-03-01T02:36:42;16.27;;;7.00;;
5569;SDS011;2808;51.240;6.794;2023-03-01T02:39:13;13.20;;;7.40;;
5569;SDS011;2808;51.240;6.794;2023-03-01T02:41:46;17.00;;;7.27;;
5569;SDS011;2808;51.240;6.794;2023-03-01T02:44:19;13.70;;;7.00;;
5569;SDS011;2808;51.240;6.794;2023-03-01T02:46:48;16.27;;;6.80;;
5569;SDS011;2808;51.240;6.794;2023-03-01T02:49:22;14.27;;;6.57;;
5569;SDS011;2808;51.240;6.794;2023-03-01T02:54:56;15.20;;;7.10;;
5569;SDS011;2808;51.240;6.794;2023-03-01T02:57:28;11.60;;;6.57;;
5569;SDS011;2808;51.240;6.794;2023-03-01T02:59:59;14.40;;;7.47;;
5569;SDS011;2808;51.240;6.794;2023-03-01T03:02:33;14.43;;;6.70;;
5569;SDS011;2808;51.240;6.794;2023-03-01T03:05:05;16.90;;;7.23;;
5569;SDS011;2808;51.240;6.794;2023-03-01T03:07:35;16.53;;;9.00;;
5569;SDS011;2808;51.240;6.794;2023-03-01T03:10:06;13.93;;;6.73;;
5569;SDS011;2808;51.240;6.794;2023-03-01T03:12:36;14.73;;;7.10;;
5569;SDS011;2808;51.240;6.794;2023-03-01T03:15:06;18.23;;;7.80;;
5569;SDS011;2808;51.240;6.794;2023-03-01T03:17:38;24.30;;;7.70;;
5569;SDS011;2808;51.240;6.794;2023-03-01T03:20:07;15.57;;;7.00;;
5569;SDS011;2808;51.240;6.794;2023-03-01T03:22:37;18.57;;;6.97;;
5569;SDS011;2808;51.240;6.794;2023-03-01T03:25:07;11.30;;;6.97;;
5569;SDS011;2808;51.240;6.794;2023-03-01T03:27:35;13.67;;;6.40;;
5569;SDS011;2808;51.240;6.794;2023-03-01T03:30:04;19.90;;;7.07;;
5569;SDS011;2808;51.240;6.794;2023-03-01T03:32:37;14.53;;;6.50;;
5569;SDS011;2808;51.240;6.794;2023-03-01T03:35:08;14.90;;;6.83;;
5569;SDS011;2808;51.240;6.794;2023-03-01T03:37:38;16.50;;;7.37;;
5569;SDS011;2808;51.240;6.794;2023-03-01T03:40:24;13.40;;;6.70;;
5569;SDS011;2808;51.240;6.794;2023-03-01T03:42:52;17.17;;;7.40;;
5569;SDS011;2808;51.240;6.794;2023-03-01T03:45:21;14.33;;;6.70;;
5569;SDS011;2808;51.240;6.794;2023-03-01T03:47:49;13.27;;;6.90;;
5569;SDS011;2808;51.240;6.794;2023-03-01T03:50:16;16.87;;;7.90;;
5569;SDS011;2808;51.240;6.794;2023-03-01T03:52:44;14.70;;;7.50;;
5569;SDS011;2808;51.240;6.794;2023-03-01T03:55:14;13.67;;;6.70;;
5569;SDS011;2808;51.240;6.794;2023-03-01T03:57:44;20.07;;;8.60;;
5569;SDS011;2808;51.240;6.794;2023-03-01T04:00:17;19.13;;;7.73;;
5569;SDS011;2808;51.240;6.794;2023-03-01T04:02:50;15.73;;;7.60;;
5569;SDS011;2808;51.240;6.794;2023-03-01T04:05:21;14.30;;;7.00;;
5569;SDS011;2808;51.240;6.794;2023-03-01T04:07:50;20.17;;;7.67;;
5569;SDS011;2808;51.240;6.794;2023-03-01T04:10:26;13.40;;;7.47;;
5569;SDS011;2808;51.240;6.794;2023-03-01T04:12:54;13.10;;;7.20;;
5569;SDS011;2808;51.240;6.794;2023-03-01T04:15:25;15.90;;;7.97;;
5569;SDS011;2808;51.240;6.794;2023-03-01T04:17:54;16.30;;;7.80;;
5569;SDS011;2808;51.240;6.794;2023-03-01T04:20:24;15.90;;;7.83;;
5569;SDS011;2808;51.240;6.794;2023-03-01T04:22:56;16.17;;;7.40;;
5569;SDS011;2808;51.240;6.794;2023-03-01T04:25:35;16.50;;;7.83;;
5569;SDS011;2808;51.240;6.794;2023-03-01T04:28:03;17.57;;;8.63;;
5569;SDS011;2808;51.240;6.794;2023-03-01T04:30:31;13.97;;;7.50;;
5569;SDS011;2808;51.240;6.794;2023-03-01T04:33:02;19.80;;;6.93;;
5569;SDS011;2808;51.240;6.794;2023-03-01T04:35:30;18.67;;;8.60;;
5569;SDS011;2808;51.240;6.794;2023-03-01T04:37:58;16.40;;;8.47;;
5569;SDS011;2808;51.240;6.794;2023-03-01T04:40:26;15.40;;;8.10;;
5569;SDS011;2808;51.240;6.794;2023-03-01T04:42:55;15.30;;;7.97;;
5569;SDS011;2808;51.240;6.794;2023-03-01T04:45:23;16.73;;;8.23;;
5569;SDS011;2808;51.240;6.794;2023-03-01T04:47:50;15.10;;;7.87;;
5569;SDS011;2808;51.240;6.794;2023-03-01T04:50:21;16.43;;;7.23;;
5569;SDS011;2808;51.240;6.794;2023-03-01T04:52:50;27.97;;;9.33;;
5569;SDS011;2808;51.240;6.794;2023-03-01T04:55:19;18.03;;;6.80;;
5569;SDS011;2808;51.240;6.794;2023-03-01T04:57:46;17.07;;;7.87;;
5569;SDS011;2808;51.240;6.794;2023-03-01T05:00:14;15.50;;;7.90;;
5569;SDS011;2808;51.240;6.794;2023-03-01T05:02:49;18.60;;;7.93;;
5569;SDS011;2808;51.240;6.794;2023-03-01T05:05:20;17.70;;;8.10;;
5569;SDS011;2808;51.240;6.794;2023-03-01T05:07:51;12.47;;;7.10;;
5569;SDS011;2808;51.240;6.794;2023-03-01T05:10:19;17.13;;;8.50;;
5569;SDS011;2808;51.240;6.794;2023-03-01T05:12:48;13.97;;;7.60;;
5569;SDS011;2808;51.240;6.794;2023-03-01T05:15:22;14.60;;;7.63;;
5569;SDS011;2808;51.240;6.794;2023-03-01T05:17:50;18.27;;;8.10;;
5569;SDS011;2808;51.240;6.794;2023-03-01T05:20:20;23.00;;;10.70;;
5569;SDS011;2808;51.240;6.794;2023-03-01T05:22:49;16.23;;;7.87;;
5569;SDS011;2808;51.240;6.794;2023-03-01T05:25:16;19.97;;;8.03;;
5569;SDS011;2808;51.240;6.794;2023-03-01T05:27:46;20.73;;;9.20;;
5569;SDS011;2808;51.240;6.794;2023-03-01T05:30:14;17.00;;;8.20;;
5569;SDS011;2808;51.240;6.794;2023-03-01T05:32:43;18.87;;;9.17;;
5569;SDS011;2808;51.240;6.794;2023-03-01T05:35:12;19.53;;;8.37;;
5569;SDS011;2808;51.240;6.794;2023-03-01T05:37:44;19.73;;;8.03;;
5569;SDS011;2808;51.240;6.794;2023-03-01T05:40:13;15.53;;;7.80;;
5569;SDS011;2808;51.240;6.794;2023-03-01T05:42:43;18.90;;;8.53;;
5569;SDS011;2808;51.240;6.794;2023-03-01T05:45:12;20.57;;;7.90;;
5569;SDS011;2808;51.240;6.794;2023-03-01T05:47:41;21.83;;;7.53;;
5569;SDS011;2808;51.240;6.794;2023-03-01T05:50:11;16.60;;;8.00;;
5569;SDS011;2808;51.240;6.794;2023-03-01T05:52:44;16.60;;;7.30;;
5569;SDS011;2808;51.240;6.794;2023-03-01T05:55:13;15.13;;;7.97;;
5569;SDS011;2808;51.240;6.794;2023-03-01T05:57:41;18.50;;;7.97;;
5569;SDS011;2808;51.240;6.794;2023-03-01T06:00:09;17.17;;;8.63;;
5569;SDS011;2808;51.240;6.794;2023-03-01T06:02:38;20.80;;;8.40;;
5569;SDS011;2808;51.240;6.794;2023-03-01T06:05:06;26.93;;;9.10;;
5569;SDS011;2808;51.240;6.794;2023-03-01T06:07:38;21.07;;;8.33;;
5569;SDS011;2808;51.240;6.794;2023-03-01T06:10:08;16.50;;;8.67;;
5569;SDS011;2808;51.240;6.794;2023-03-01T06:12:37;16.90;;;8.17;;
5569;SDS011;2808;51.240;6.794;2023-03-01T06:15:09;15.53;;;7.83;;
5569;SDS011;2808;51.240;6.794;2023-03-01T06:17:40;23.20;;;8.63;;
5569;SDS011;2808;51.240;6.794;2023-03-01T06:20:10;16.23;;;8.93;;
5569;SDS011;2808;51.240;6.794;2023-03-01T06:22:40;14.03;;;7.57;;
5569;SDS011;2808;51.240;6.794;2023-03-01T06:25:10;19.17;;;9.33;;
5569;SDS011;2808;51.240;6.794;2023-03-01T06:27:38;17.73;;;9.17;;
5569;SDS011;2808;51.240;6.794;2023-03-01T06:30:07;14.30;;;8.67;;
5569;SDS011;2808;51.240;6.794;2023-03-01T06:32:36;16.83;;;8.90;;
5569;SDS011;2808;51.240;6.794;2023-03-01T06:35:07;17.63;;;8.33;;
5569;SDS011;2808;51.240;6.794;2023-03-01T06:37:34;17.80;;;8.67;;
5569;SDS011;2808;51.240;6.794;2023-03-01T06:40:02;16.23;;;8.00;;
5569;SDS011;2808;51.240;6.794;2023-03-01T06:42:34;19.83;;;9.10;;
5569;SDS011;2808;51.240;6.794;2023-03-01T06:45:02;19.40;;;9.40;;
5569;SDS011;2808;51.240;6.794;2023-03-01T06:47:31;22.13;;;9.53;;
5569;SDS011;2808;51.240;6.794;2023-03-01T06:49:59;16.03;;;8.20;;
5569;SDS011;2808;51.240;6.794;2023-03-01T06:52:26;17.93;;;8.60;;
5569;SDS011;2808;51.240;6.794;2023-03-01T06:54:54;20.20;;;9.40;;
5569;SDS011;2808;51.240;6.794;2023-03-01T06:57:22;13.00;;;7.70;;
5569;SDS011;2808;51.240;6.794;2023-03-01T06:59:50;18.67;;;9.13;;
5569;SDS011;2808;51.240;6.794;2023-03-01T07:02:18;18.03;;;8.80;;
5569;SDS011;2808;51.240;6.794;2023-03-01T07:04:46;16.37;;;8.70;;
5569;SDS011;2808;51.240;6.794;2023-03-01T07:07:14;24.43;;;7.53;;
5569;SDS011;2808;51.240;6.794;2023-03-01T07:09:43;16.87;;;7.67;;
5569;SDS011;2808;51.240;6.794;2023-03-01T07:12:10;23.57;;;9.23;;
5569;SDS011;2808;51.240;6.794;2023-03-01T07:14:41;20.20;;;7.60;;
5569;SDS011;2808;51.240;6.794;2023-03-01T07:17:11;17.37;;;9.00;;
5569;SDS011;2808;51.240;6.794;2023-03-01T07:19:38;16.37;;;8.17;;
5569;SDS011;2808;51.240;6.794;2023-03-01T07:22:06;18.30;;;8.47;;
5569;SDS011;2808;51.240;6.794;2023-03-01T07:24:40;17.67;;;9.07;;
5569;SDS011;2808;51.240;6.794;2023-03-01T07:27:07;18.23;;;8.60;;
5569;SDS011;2808;51.240;6.794;2023-03-01T07:29:35;17.03;;;8.23;;
5569;SDS011;2808;51.240;6.794;2023-03-01T07:32:03;15.90;;;8.87;;
5569;SDS011;2808;51.240;6.794;2023-03-01T07:34:33;15.13;;;8.03;;
5569;SDS011;2808;51.240;6.794;2023-03-01T07:37:03;14.60;;;8.13;;
5569;SDS011;2808;51.240;6.794;2023-03-01T07:39:33;22.03;;;9.80;;
5569;SDS011;2808;51.240;6.794;2023-03-01T07:42:00;17.50;;;9.20;;
5569;SDS011;2808;51.240;6.794;2023-03-01T07:44:28;16.90;;;8.33;;
5569;SDS011;2808;51.240;6.794;2023-03-01T07:46:55;17.57;;;8.30;;
5569;SDS011;2808;51.240;6.794;2023-03-01T07:49:23;16.57;;;7.73;;
5569;SDS011;2808;51.240;6.794;2023-03-01T07:51:52;15.30;;;8.63;;
5569;SDS011;2808;51.240;6.794;2023-03-01T07:54:21;17.70;;;8.40;;
5569;SDS011;2808;51.240;6.794;2023-03-01T07:56:48;16.43;;;8.77;;
5569;SDS011;2808;51.240;6.794;2023-03-01T07:59:16;13.20;;;7.40;;
5569;SDS011;2808;51.240;6.794;2023-03-01T08:01:43;19.73;;;9.57;;
5569;SDS011;2808;51.240;6.794;2023-03-01T08:04:11;16.20;;;8.77;;
5569;SDS011;2808;51.240;6.794;2023-03-01T08:06:38;13.47;;;7.80;;
5569;SDS011;2808;51.240;6.794;2023-03-01T08:09:07;14.87;;;8.57;;
5569;SDS011;2808;51.240;6.794;2023-03-01T08:11:36;16.67;;;9.13;;
5569;SDS011;2808;51.240;6.794;2023-03-01T08:14:03;15.10;;;8.20;;
5569;SDS011;2808;51.240;6.794;2023-03-01T08:16:32;16.63;;;8.47;;
5569;SDS011;2808;51.240;6.794;2023-03-01T08:19:03;19.63;;;8.60;;
5569;SDS011;2808;51.240;6.794;2023-03-01T08:21:31;16.90;;;9.20;;
5569;SDS011;2808;51.240;6.794;2023-03-01T08:24:00;17.53;;;8.83;;
5569;SDS011;2808;51.240;6.794;2023-03-01T08:26:29;14.90;;;8.97;;
5569;SDS011;2808;51.240;6.794;2023-03-01T08:28:57;15.93;;;8.70;;
5569;SDS011;2808;51.240;6.794;2023-03-01T08:31:26;16.37;;;8.30;;
5569;SDS011;2808;51.240;6.794;2023-03-01T08:33:56;20.03;;;9.80;;
5569;SDS011;2808;51.240;6.794;2023-03-01T08:36:26;16.27;;;8.57;;
5569;SDS011;2808;51.240;6.794;2023-03-01T08:38:58;18.23;;;9.57;;
5569;SDS011;2808;51.240;6.794;2023-03-01T08:41:26;16.57;;;8.73;;
5569;SDS011;2808;51.240;6.794;2023-03-01T08:43:58;16.37;;;9.20;;
5569;SDS011;2808;51.240;6.794;2023-03-01T08:46:25;21.07;;;8.50;;
5569;SDS011;2808;51.240;6.794;2023-03-01T08:48:53;16.83;;;9.70;;
5569;SDS011;2808;51.240;6.794;2023-03-01T08:51:22;26.10;;;10.00;;
5569;SDS011;2808;51.240;6.794;2023-03-01T08:53:52;16.20;;;8.30;;
5569;SDS011;2808;51.240;6.794;2023-03-01T08:56:20;18.00;;;9.10;;
5569;SDS011;2808;51.240;6.794;2023-03-01T08:58:48;17.50;;;8.90;;
5569;SDS011;2808;51.240;6.794;2023-03-01T09:01:18;14.97;;;8.57;;
5569;SDS011;2808;51.240;6.794;2023-03-01T09:03:46;17.03;;;9.10;;
5569;SDS011;2808;51.240;6.794;2023-03-01T09:06:14;17.00;;;8.40;;
5569;SDS011;2808;51.240;6.794;2023-03-01T09:08:43;21.00;;;8.33;;
5569;SDS011;2808;51.240;6.794;2023-03-01T09:11:12;19.20;;;9.07;;
5569;SDS011;2808;51.240;6.794;2023-03-01T09:13:41;14.70;;;8.40;;
5569;SDS011;2808;51.240;6.794;2023-03-01T09:16:10;21.27;;;9.00;;
5569;SDS011;2808;51.240;6.794;2023-03-01T09:18:39;14.33;;;8.40;;
5569;SDS011;2808;51.240;6.794;2023-03-01T09:21:10;16.67;;;8.83;;
5569;SDS011;2808;51.240;6.794;2023-03-01T09:23:40;14.73;;;8.83;;
5569;SDS011;2808;51.240;6.794;2023-03-01T09:26:11;15.93;;;8.33;;
5569;SDS011;2808;51.240;6.794;2023-03-01T09:28:41;14.90;;;8.27;;
5569;SDS011;2808;51.240;6.794;2023-03-01T09:31:09;16.57;;;7.93;;
5569;SDS011;2808;51.240;6.794;2023-03-01T09:33:42;15.40;;;7.70;;
5569;SDS011;2808;51.240;6.794;2023-03-01T09:36:12;15.53;;;8.07;;
5569;SDS011;2808;51.240;6.794;2023-03-01T09:38:41;19.00;;;8.03;;
5569;SDS011;2808;51.240;6.794;2023-03-01T09:41:09;15.13;;;8.40;;
5569;SDS011;2808;51.240;6.794;2023-03-01T09:43:45;17.53;;;8.40;;
5569;SDS011;2808;51.240;6.794;2023-03-01T09:46:19;15.83;;;8.30;;
5569;SDS011;2808;51.240;6.794;2023-03-01T09:48:54;14.70;;;8.00;;
5569;SDS011;2808;51.240;6.794;2023-03-01T09:51:26;18.87;;;8.23;;
5569;SDS011;2808;51.240;6.794;2023-03-01T09:57:04;19.60;;;8.23;;
5569;SDS011;2808;51.240;6.794;2023-03-01T09:59:55;14.00;;;7.47;;
5569;SDS011;2808;51.240;6.794;2023-03-01T10:02:47;19.00;;;8.53;;
5569;SDS011;2808;51.240;6.794;2023-03-01T10:05:25;13.50;;;7.90;;
5569;SDS011;2808;51.240;6.794;2023-03-01T10:11:00;13.80;;;7.53;;
5569;SDS011;2808;51.240;6.794;2023-03-01T10:13:31;18.77;;;8.20;;
5569;SDS011;2808;51.240;6.794;2023-03-01T10:16:12;18.60;;;7.83;;
5569;SDS011;2808;51.240;6.794;2023-03-01T10:18:43;18.90;;;8.30;;
5569;SDS011;2808;51.240;6.794;2023-03-01T10:21:17;17.47;;;8.40;;
5569;SDS011;2808;51.240;6.794;2023-03-01T10:23:46;17.73;;;7.90;;
5569;SDS011;2808;51.240;6.794;2023-03-01T10:26:22;15.10;;;7.97;;
5569;SDS011;2808;51.240;6.794;2023-03-01T10:29:00;14.37;;;7.40;;
5569;SDS011;2808;51.240;6.794;2023-03-01T10:31:36;17.47;;;8.53;;
5569;SDS011;2808;51.240;6.794;2023-03-01T10:34:15;19.70;;;8.27;;
5569;SDS011;2808;51.240;6.794;2023-03-01T10:36:47;13.03;;;7.50;;
5569;SDS011;2808;51.240;6.794;2023-03-01T10:39:17;19.93;;;8.83;;
5569;SDS011;2808;51.240;6.794;2023-03-01T10:41:56;17.60;;;8.00;;
5569;SDS011;2808;51.240;6.794;2023-03-01T10:44:35;18.67;;;9.03;;
5569;SDS011;2808;51.240;6.794;2023-03-01T10:47:18;18.27;;;8.27;;
5569;SDS011;2808;51.240;6.794;2023-03-01T10:49:54;15.03;;;8.07;;
5569;SDS011;2808;51.240;6.794;2023-03-01T10:52:30;19.37;;;8.80;;
5569;SDS011;2808;51.240;6.794;2023-03-01T10:55:00;14.73;;;7.60;;
5569;SDS011;2808;51.240;6.794;2023-03-01T10:57:32;19.00;;;8.80;;
5569;SDS011;2808;51.240;6.794;2023-03-01T11:00:16;16.23;;;8.13;;
5569;SDS011;2808;51.240;6.794;2023-03-01T11:03:01;16.57;;;8.60;;
5569;SDS011;2808;51.240;6.794;2023-03-01T11:05:36;18.07;;;8.50;;
5569;SDS011;2808;51.240;6.794;2023-03-01T11:08:25;14.33;;;8.30;;
5569;SDS011;2808;51.240;6.794;2023-03-01T11:11:04;16.67;;;8.40;;
5569;SDS011;2808;51.240;6.794;2023-03-01T11:13:46;17.27;;;7.80;;
5569;SDS011;2808;51.240;6.794;2023-03-01T11:16:22;21.87;;;8.73;;
5569;SDS011;2808;51.240;6.794;2023-03-01T11:18:59;16.07;;;7.90;;
5569;SDS011;2808;51.240;6.794;2023-03-01T11:21:47;15.47;;;7.83;;
5569;SDS011;2808;51.240;6.794;2023-03-01T11:24:22;21.10;;;7.93;;
5569;SDS011;2808;51.240;6.794;2023-03-01T11:26:58;17.87;;;8.70;;
5569;SDS011;2808;51.240;6.794;2023-03-01T11:29:30;15.27;;;8.50;;
5569;SDS011;2808;51.240;6.794;2023-03-01T11:32:04;18.90;;;8.77;;
5569;SDS011;2808;51.240;6.794;2023-03-01T11:34:37;17.20;;;7.87;;
5569;SDS011;2808;51.240;6.794;2023-03-01T11:37:10;17.03;;;8.90;;
5569;SDS011;2808;51.240;6.794;2023-03-01T11:39:53;15.37;;;8.50;;
5569;SDS011;2808;51.240;6.794;2023-03-01T11:42:29;15.53;;;8.00;;
5569;SDS011;2808;51.240;6.794;2023-03-01T11:45:09;20.70;;;8.57;;
5569;SDS011;2808;51.240;6.794;2023-03-01T11:47:44;15.30;;;8.33;;
5569;SDS011;2808;51.240;6.794;2023-03-01T11:50:20;14.33;;;7.77;;
5569;SDS011;2808;51.240;6.794;2023-03-01T11:53:03;15.40;;;7.20;;
5569;SDS011;2808;51.240;6.794;2023-03-01T11:55:49;15.30;;;7.77;;
5569;SDS011;2808;51.240;6.794;2023-03-01T11:58:38;14.33;;;8.13;;
5569;SDS011;2808;51.240;6.794;2023-03-01T12:01:26;16.30;;;7.33;;
5569;SDS011;2808;51.240;6.794;2023-03-01T12:04:10;17.00;;;8.10;;
5569;SDS011;2808;51.240;6.794;2023-03-01T12:06:55;16.30;;;7.00;;
5569;SDS011;2808;51.240;6.794;2023-03-01T12:09:31;13.13;;;6.47;;
5569;SDS011;2808;51.240;6.794;2023-03-01T12:12:16;14.43;;;6.57;;
5569;SDS011;2808;51.240;6.794;2023-03-01T12:18:18;12.73;;;6.47;;
5569;SDS011;2808;51.240;6.794;2023-03-01T12:20:58;13.83;;;7.17;;
5569;SDS011;2808;51.240;6.794;2023-03-01T12:23:50;12.07;;;6.77;;
5569;SDS011;2808;51.240;6.794;2023-03-01T12:26:30;14.47;;;7.40;;
5569;SDS011;2808;51.240;6.794;2023-03-01T12:29:16;16.90;;;7.93;;
5569;SDS011;2808;51.240;6.794;2023-03-01T12:32:12;11.50;;;6.47;;
5569;SDS011;2808;51.240;6.794;2023-03-01T12:35:01;10.70;;;5.73;;
5569;SDS011;2808;51.240;6.794;2023-03-01T12:37:47;16.77;;;6.77;;
5569;SDS011;2808;51.240;6.794;2023-03-01T12:43:17;13.57;;;6.40;;
5569;SDS011;2808;51.240;6.794;2023-03-01T12:46:01;14.93;;;7.00;;
5569;SDS011;2808;51.240;6.794;2023-03-01T12:48:48;11.30;;;5.93;;
5569;SDS011;2808;51.240;6.794;2023-03-01T12:51:23;11.73;;;5.93;;
5569;SDS011;2808;51.240;6.794;2023-03-01T12:53:53;12.27;;;6.67;;
5569;SDS011;2808;51.240;6.794;2023-03-01T12:56:24;12.97;;;6.80;;
5569;SDS011;2808;51.240;6.794;2023-03-01T12:58:57;11.83;;;6.17;;
5569;SDS011;2808;51.240;6.794;2023-03-01T13:01:35;12.50;;;6.00;;
5569;SDS011;2808;51.240;6.794;2023-03-01T13:04:14;11.80;;;6.00;;
5569;SDS011;2808;51.240;6.794;2023-03-01T13:06:54;12.60;;;6.40;;
5569;SDS011;2808;51.240;6.794;2023-03-01T13:09:30;14.33;;;6.53;;
5569;SDS011;2808;51.240;6.794;2023-03-01T13:15:13;11.20;;;6.23;;
5569;SDS011;2808;51.240;6.794;2023-03-01T13:17:57;11.63;;;5.90;;
5569;SDS011;2808;51.240;6.794;2023-03-01T13:20:27;12.30;;;6.00;;
5569;SDS011;2808;51.240;6.794;2023-03-01T13:23:03;14.73;;;6.60;;
5569;SDS011;2808;51.240;6.794;2023-03-01T13:28:38;10.87;;;6.23;;
5569;SDS011;2808;51.240;6.794;2023-03-01T13:34:42;10.77;;;6.00;;
5569;SDS011;2808;51.240;6.794;2023-03-01T13:37:24;9.43;;;5.33;;
5569;SDS011;2808;51.240;6.794;2023-03-01T13:40:02;12.40;;;5.87;;
5569;SDS011;2808;51.240;6.794;2023-03-01T13:42:53;12.30;;;6.33;;
5569;SDS011;2808;51.240;6.794;2023-03-01T13:45:24;17.63;;;5.90;;
5569;SDS011;2808;51.240;6.794;2023-03-01T13:48:01;12.30;;;5.73;;
5569;SDS011;2808;51.240;6.794;2023-03-01T13:50:37;12.17;;;6.13;;
5569;SDS011;2808;51.240;6.794;2023-03-01T13:53:12;10.50;;;5.47;;
5569;SDS011;2808;51.240;6.794;2023-03-01T13:55:45;16.43;;;6.53;;
5569;SDS011;2808;51.240;6.794;2023-03-01T13:58:19;12.37;;;6.57;;
5569;SDS011;2808;51.240;6.794;2023-03-01T14:00:55;17.50;;;6.00;;
5569;SDS011;2808;51.240;6.794;2023-03-01T14:03:24;14.07;;;5.97;;
5569;SDS011;2808;51.240;6.794;2023-03-01T14:05:59;11.83;;;5.90;;
5569;SDS011;2808;51.240;6.794;2023-03-01T14:08:31;16.07;;;5.90;;
5569;SDS011;2808;51.240;6.794;2023-03-01T14:11:10;15.13;;;6.20;;
5569;SDS011;2808;51.240;6.794;2023-03-01T14:14:22;15.60;;;6.80;;
5569;SDS011;2808;51.240;6.794;2023-03-01T14:17:18;11.47;;;5.80;;
5569;SDS011;2808;51.240;6.794;2023-03-01T14:19:55;10.57;;;5.90;;
5569;SDS011;2808;51.240;6.794;2023-03-01T14:22:26;15.10;;;6.27;;
5569;SDS011;2808;51.240;6.794;2023-03-01T14:24:55;14.77;;;5.97;;
5569;SDS011;2808;51.240;6.794;2023-03-01T14:27:25;11.77;;;6.33;;
5569;SDS011;2808;51.240;6.794;2023-03-01T14:29:56;12.00;;;5.97;;
5569;SDS011;2808;51.240;6.794;2023-03-01T14:32:26;11.30;;;6.20;;
5569;SDS011;2808;51.240;6.794;2023-03-01T14:34:55;13.60;;;5.60;;
5569;SDS011;2808;51.240;6.794;2023-03-01T14:37:24;21.37;;;6.70;;
5569;SDS011;2808;51.240;6.794;2023-03-01T14:39:55;11.83;;;6.27;;
5569;SDS011;2808;51.240;6.794;2023-03-01T14:42:24;17.50;;;6.10;;
5569;SDS011;2808;51.240;6.794;2023-03-01T14:44:57;15.60;;;6.53;;
5569;SDS011;2808;51.240;6.794;2023-03-01T14:47:28;11.73;;;6.10;;
5569;SDS011;2808;51.240;6.794;2023-03-01T14:50:00;14.93;;;6.63;;
5569;SDS011;2808;51.240;6.794;2023-03-01T14:52:33;16.47;;;6.27;;
5569;SDS011;2808;51.240;6.794;2023-03-01T14:55:04;15.77;;;6.33;;
5569;SDS011;2808;51.240;6.794;2023-03-01T14:57:42;13.27;;;6.57;;
5569;SDS011;2808;51.240;6.794;2023-03-01T15:00:16;11.07;;;6.27;;
5569;SDS011;2808;51.240;6.794;2023-03-01T15:02:47;17.17;;;6.00;;
5569;SDS011;2808;51.240;6.794;2023-03-01T15:05:25;13.80;;;6.20;;
5569;SDS011;2808;51.240;6.794;2023-03-01T15:08:05;16.97;;;5.80;;
5569;SDS011;2808;51.240;6.794;2023-03-01T15:11:01;10.87;;;5.70;;
5569;SDS011;2808;51.240;6.794;2023-03-01T15:13:31;13.77;;;5.80;;
5569;SDS011;2808;51.240;6.794;2023-03-01T15:16:02;13.73;;;6.60;;
5569;SDS011;2808;51.240;6.794;2023-03-01T15:18:32;15.93;;;6.03;;
5569;SDS011;2808;51.240;6.794;2023-03-01T15:21:07;9.80;;;6.03;;
5569;SDS011;2808;51.240;6.794;2023-03-01T15:23:35;14.17;;;5.90;;
5569;SDS011;2808;51.240;6.794;2023-03-01T15:26:17;13.60;;;6.23;;
5569;SDS011;2808;51.240;6.794;2023-03-01T15:28:50;12.40;;;6.00;;
5569;SDS011;2808;51.240;6.794;2023-03-01T15:31:23;12.80;;;6.10;;
5569;SDS011;2808;51.240;6.794;2023-03-01T15:33:52;15.07;;;6.27;;
5569;SDS011;2808;51.240;6.794;2023-03-01T15:36:39;12.00;;;5.60;;
5569;SDS011;2808;51.240;6.794;2023-03-01T15:39:30;14.60;;;6.33;;
5569;SDS011;2808;51.240;6.794;2023-03-01T15:42:04;14.70;;;5.90;;
5569;SDS011;2808;51.240;6.794;2023-03-01T15:44:34;39.80;;;6.30;;
5569;SDS011;2808;51.240;6.794;2023-03-01T15:47:03;11.63;;;5.27;;
5569;SDS011;2808;51.240;6.794;2023-03-01T15:49:48;11.73;;;5.47;;
5569;SDS011;2808;51.240;6.794;2023-03-01T15:52:20;12.10;;;6.17;;
5569;SDS011;2808;51.240;6.794;2023-03-01T15:54:53;12.40;;;5.73;;
5569;SDS011;2808;51.240;6.794;2023-03-01T15:57:24;10.87;;;5.30;;